Richmond, VA (23274)

9:23 AM EST on December 29, 2014 (GMT -0500)
Woodland Heights | Change Station
CLOSE
Current Station
Personal Weather Station
Location: Richmond, VA
Elevation: 144 ft
Nearby Weather Stations

Elev 144 ft 37.52 °N, 77.46 °W | Updated 0 second ago

Rain
Rain
42.4 °F
Feels Like 42 °F
N
0.0
Wind Variable Wind from North
Gusts 0.0 mph

Today
High -- | Low -- °F
--% Chance of Precip.
Yesterday
High -- | Low -- °F
Precip. -- in
7:23 AM 4:59 PM
First Quarter, 59% visible
Pressure 30.20 in
Visibility 10.0 miles
Clouds Few 1400 ft
Overcast 2800 ft
Windchill 42 °F
Dew Point 42 °F
Humidity 98%
Rainfall 0.29 in
Snow Depth Not available.
UV 0 out of 12
Pollen .10 out of 12
Air Quality Not available.
Flu Activity Not available.
METAR KRIC 291354Z AUTO 04005KT 10SM -RA FEW014 OVC028 06/03 A3018 RMK AO2 SLP225 P0006 T00560033 $

More Conditions Fewer Conditions

Pressure 30.20 in
Visibility 10.0 miles
Clouds Few 1400 ft
Overcast 2800 ft
Windchill 42 °F
Dew Point 42 °F
Humidity 98%
Rainfall 0.29 in
Snow Depth Not available.
UV 0 out of 12
Pollen .10 out of 12
Air Quality Not available.
Flu Activity Not available.
METAR KRIC 291354Z AUTO 04005KT 10SM -RA FEW014 OVC028 06/03 A3018 RMK AO2 SLP225 P0006 T00560033 $

More Conditions Fewer Conditions

10-Day Weather Forecast

Almanac

Astronomy

Dec. 29, 2014 Rise Set
Actual Time
Civil Twilight
Nautical Twilight
Astronomical Twilight
Moon
Length of Visible Light
Length of Day
Tomorrow will be .
, % of the Moon is Illuminated

Today's Extremes

State Highs State Lows

Community

WunderPhotos

Upload Photos

1,781,587 photos uploaded!

WunderBlogs® & News

Nearby

Air Quality

  Air Quality AQ Index Pollutant
Not available.

Snow Depth

Station Depth Elevation

Earthquake Activity

City Distance Mag. Time & Date
Minimum magnitude displayed is 2.5.

Coastal Water Temperatures

Place Temperature

Nearby Weather Stations